< Cyclone 201307 2013 Season Cyclone 201310 >
Cyclone 201308 (Peta)
General InformationTrack Information on Google MapsDetailed Wind InformationList of All Images || ResourceGoogle EarthGE AnimationAtom FeedGeoJSON
Detalied Best Track (Time Zone = UTC)
Year Month Day Hour Lat. Long. Pressure (hPa) Wind (kt) Class Image Chart
2013 1 20 03 -16.4 123.5 1001 15 2 Image --
2013 1 20 06 -16.8 123.2 1001 15 2 Image --
2013 1 20 09 -16.8 123.2 1002 20 2 Image --
2013 1 20 12 -17.0 123.0 1001 15 2 Image --
2013 1 20 15 -17.2 122.9 1003 20 2 Image --
2013 1 20 18 -17.3 122.7 1001 15 2 Image --
2013 1 21 00 -17.8 122.4 1001 20 2 Image --
2013 1 21 03 -18.0 122.2 1001 20 2 Image --
2013 1 21 06 -18.2 121.6 1001 25 2 Image --
2013 1 21 09 -18.5 121.7 1002 15 2 Image --
2013 1 21 12 -18.9 121.1 1001 25 2 Image --
2013 1 21 15 -19.1 121.2 1002 15 2 Image --
2013 1 21 18 -19.2 120.8 999 30 2 Image --
2013 1 21 21 -19.2 120.5 1001 20 2 Image --
2013 1 22 00 -19.3 120.2 996 30 2 Image --
2013 1 22 03 -19.3 119.9 995 30 2 Image --
2013 1 22 06 -19.5 119.3 994 30 2 Image --
2013 1 22 09 -19.7 118.8 997 30 2 Image --
2013 1 22 12 -19.8 118.6 991 35 3 Image --
2013 1 22 13 -19.8 118.4 997 30 2 Image --
2013 1 22 14 -19.8 118.1 997 30 2 Image --
2013 1 22 15 -19.8 117.9 994 30 2 Image --
2013 1 22 18 -19.6 117.8 991 30 2 Image --
2013 1 22 21 -19.8 117.9 991 30 2 Image --
2013 1 23 00 -20.1 117.7 991 35 3 Image --
2013 1 23 03 -20.4 117.4 989 45 3 Image --
2013 1 23 06 -20.7 117.3 988 40 3 Image --
2013 1 23 09 -20.9 117.2 994 30 2 Image --
< Cyclone 201307 2013 Season Cyclone 201310 >

Help